createdAt,value
2022-08-10T00:01:52.190Z,23.40
2022-08-10T00:04:21.143Z,22.27
2022-08-10T00:06:50.050Z,23.73
2022-08-10T00:09:16.988Z,25.50
2022-08-10T00:11:43.808Z,24.63
2022-08-10T00:14:10.728Z,26.73
2022-08-10T00:16:37.607Z,30.60
2022-08-10T00:19:04.469Z,29.27
2022-08-10T00:21:31.408Z,31.17
2022-08-10T00:23:58.268Z,29.60
2022-08-10T00:26:25.208Z,28.20
2022-08-10T00:28:52.968Z,24.83
2022-08-10T00:31:21.330Z,22.48
2022-08-10T00:33:48.287Z,28.55
2022-08-10T00:36:15.148Z,27.08
2022-08-10T00:38:42.447Z,27.15
2022-08-10T00:41:09.349Z,30.17
2022-08-10T00:43:36.268Z,28.38
2022-08-10T00:46:04.188Z,31.77
2022-08-10T00:48:31.315Z,31.83
2022-08-10T00:50:59.215Z,28.60
2022-08-10T00:53:29.136Z,25.27
2022-08-10T00:57:14.335Z,25.08
2022-08-10T00:58:43.090Z,26.13
2022-08-10T01:01:11.731Z,30.48
2022-08-10T01:04:36.251Z,28.67
2022-08-10T01:07:08.190Z,27.97
2022-08-10T01:09:55.579Z,28.30
2022-08-10T01:12:45.549Z,30.08
2022-08-10T01:15:40.729Z,25.05
2022-08-10T01:18:21.410Z,26.33
2022-08-10T01:21:23.609Z,22.90
2022-08-10T01:24:15.411Z,22.52
2022-08-10T01:27:19.910Z,21.23
2022-08-10T01:29:59.968Z,22.52
2022-08-10T01:32:33.367Z,26.92
2022-08-10T01:35:11.588Z,29.27
2022-08-10T01:37:42.628Z,31.58
2022-08-10T01:40:23.075Z,31.65
2022-08-10T01:42:49.928Z,29.50
2022-08-10T01:45:17.089Z,31.70
2022-08-10T01:48:02.229Z,32.60
2022-08-10T01:50:32.348Z,32.55
2022-08-10T01:53:03.748Z,34.33
2022-08-10T01:55:30.668Z,32.08
2022-08-10T01:57:57.629Z,32.42
2022-08-10T02:00:25.090Z,28.03
2022-08-10T02:02:51.987Z,25.50
2022-08-10T02:05:18.828Z,26.73
2022-08-10T02:07:45.789Z,28.30
2022-08-10T02:10:13.989Z,30.52
2022-08-10T02:12:41.871Z,28.57
2022-08-10T02:15:15.188Z,31.30
2022-08-10T02:17:58.638Z,28.23
2022-08-10T02:20:41.190Z,25.52
2022-08-10T02:23:14.507Z,26.17
2022-08-10T02:25:43.808Z,28.77
2022-08-10T02:28:27.051Z,29.17
2022-08-10T02:31:03.010Z,31.85
2022-08-10T02:33:37.169Z,29.00
2022-08-10T02:36:06.448Z,30.65
2022-08-10T02:38:59.665Z,28.30
2022-08-10T02:45:02.893Z,34.63
2022-08-10T02:45:23.960Z,40.58
2022-08-10T02:47:52.255Z,38.55
2022-08-10T02:50:35.288Z,41.65
2022-08-10T02:53:06.507Z,32.37
2022-08-10T02:55:36.208Z,32.22
2022-08-10T02:58:16.767Z,36.83
2022-08-10T03:00:47.183Z,39.85
2022-08-10T03:03:25.629Z,40.42
2022-08-10T03:06:00.929Z,32.77
2022-08-10T03:08:29.331Z,30.23
2022-08-10T03:10:56.288Z,32.22
2022-08-10T03:13:23.227Z,32.28
2022-08-10T03:15:50.116Z,33.75
2022-08-10T03:18:17.088Z,30.43
2022-08-10T03:20:44.276Z,35.97
2022-08-10T03:23:16.930Z,40.20
2022-08-10T03:25:53.181Z,32.92
2022-08-10T03:28:31.088Z,35.80
2022-08-10T03:30:59.209Z,35.57
2022-08-10T03:33:27.529Z,35.33
2022-08-10T03:36:42.878Z,28.42
2022-08-10T03:38:41.270Z,29.58
2022-08-10T03:41:10.068Z,29.35
2022-08-10T03:43:37.011Z,31.10
2022-08-10T03:46:06.477Z,29.38
2022-08-10T03:48:48.379Z,30.83
2022-08-10T03:51:19.207Z,25.88
2022-08-10T03:54:04.567Z,26.73
2022-08-10T03:56:34.008Z,22.30
2022-08-10T03:59:01.616Z,23.33
2022-08-10T04:02:52.006Z,26.67
2022-08-10T04:04:20.946Z,31.52
2022-08-10T04:06:54.901Z,28.65
2022-08-10T04:09:43.213Z,22.43
2022-08-10T04:12:13.777Z,26.55
2022-08-10T04:14:49.317Z,26.45
2022-08-10T04:18:04.262Z,26.60
2022-08-10T04:20:08.068Z,27.23
2022-08-10T04:22:35.180Z,22.47
2022-08-10T04:25:03.348Z,22.88
2022-08-10T04:27:30.228Z,19.20
2022-08-10T04:29:57.388Z,19.08
2022-08-10T04:32:24.389Z,17.10
2022-08-10T04:34:51.568Z,16.97
2022-08-10T04:37:18.549Z,17.30
2022-08-10T04:39:45.513Z,16.35
2022-08-10T04:42:12.535Z,14.20
2022-08-10T04:44:39.488Z,16.85
2022-08-10T04:47:06.267Z,14.93
2022-08-10T04:49:53.993Z,17.17
2022-08-10T04:52:21.688Z,15.07
2022-08-10T04:54:52.228Z,12.70
2022-08-10T04:57:19.867Z,13.27
2022-08-10T04:59:46.829Z,14.23
2022-08-10T05:02:31.591Z,13.05
2022-08-10T05:04:59.320Z,11.98
2022-08-10T05:07:26.289Z,11.38
2022-08-10T05:10:02.031Z,13.63
2022-08-10T05:12:39.305Z,12.23
2022-08-10T05:15:13.551Z,10.60
2022-08-10T05:17:41.207Z,11.60
2022-08-10T05:20:28.072Z,10.90
2022-08-10T05:22:54.947Z,9.63
2022-08-10T05:25:21.908Z,7.23
2022-08-10T05:27:49.071Z,10.38
2022-08-10T05:30:17.908Z,9.23
2022-08-10T05:32:56.189Z,7.60
2022-08-10T05:35:25.211Z,7.90
2022-08-10T05:38:10.158Z,7.10
2022-08-10T05:40:41.032Z,5.70
2022-08-10T05:43:13.028Z,6.35
2022-08-10T05:46:18.351Z,5.75
2022-08-10T05:48:41.609Z,6.65
2022-08-10T05:51:16.169Z,6.50
2022-08-10T05:54:02.763Z,7.65
2022-08-10T05:56:56.215Z,6.30
2022-08-10T06:00:34.371Z,6.20
2022-08-10T06:02:35.485Z,6.30
2022-08-10T06:05:14.027Z,5.10
2022-08-10T06:08:02.649Z,4.82
2022-08-10T06:10:32.214Z,6.47
2022-08-10T06:13:26.959Z,5.53
2022-08-10T06:15:58.129Z,5.15
2022-08-10T06:18:25.068Z,4.87
2022-08-10T06:20:52.273Z,5.22
2022-08-10T06:23:19.248Z,5.15
2022-08-10T06:26:10.176Z,4.40
2022-08-10T06:28:34.110Z,7.47
2022-08-10T06:31:01.107Z,4.50
2022-08-10T06:33:28.068Z,5.43
2022-08-10T06:35:55.570Z,6.53
2022-08-10T06:38:23.607Z,5.10
2022-08-10T06:40:50.507Z,7.25
2022-08-10T06:43:18.916Z,5.80
2022-08-10T06:46:07.832Z,19.70
2022-08-10T06:48:39.114Z,7.20
2022-08-10T06:51:07.307Z,5.65
2022-08-10T06:53:52.779Z,5.88
2022-08-10T06:56:37.845Z,4.97
2022-08-10T06:59:22.983Z,4.82
2022-08-10T07:01:53.347Z,6.97
2022-08-10T07:04:32.335Z,5.53
2022-08-10T07:07:04.667Z,5.20
2022-08-10T07:09:32.828Z,4.37
2022-08-10T07:12:07.552Z,5.38
2022-08-10T07:14:44.334Z,4.50
2022-08-10T07:17:16.887Z,4.90
2022-08-10T07:19:50.375Z,4.68
2022-08-10T07:23:26.939Z,3.77
2022-08-10T07:25:08.387Z,3.90
2022-08-10T07:27:58.292Z,3.85
2022-08-10T07:30:22.328Z,4.15
2022-08-10T07:32:51.795Z,4.63
2022-08-10T07:35:19.247Z,4.50
2022-08-10T07:37:48.111Z,4.70
2022-08-10T07:40:18.365Z,4.97
2022-08-10T07:42:46.388Z,4.60
2022-08-10T07:45:13.528Z,5.63
2022-08-10T07:48:05.089Z,4.40
2022-08-10T07:50:35.456Z,5.18
2022-08-10T07:53:03.269Z,5.47
2022-08-10T07:56:04.830Z,5.38
2022-08-10T07:58:18.849Z,4.13
2022-08-10T08:00:49.528Z,3.97
2022-08-10T08:03:16.495Z,5.00
2022-08-10T08:06:02.683Z,4.60
2022-08-10T08:08:30.609Z,3.60
2022-08-10T08:10:58.189Z,5.85
2022-08-10T08:13:25.052Z,5.23
2022-08-10T08:16:16.950Z,5.70
2022-08-10T08:18:41.850Z,3.80
2022-08-10T08:24:04.651Z,5.63
2022-08-10T08:24:31.036Z,5.43
2022-08-10T08:27:01.268Z,4.90
2022-08-10T08:29:28.190Z,3.65
2022-08-10T08:32:02.383Z,4.93
2022-08-10T08:34:32.213Z,5.63
2022-08-10T08:37:00.993Z,4.47
2022-08-10T08:39:28.661Z,7.63
2022-08-10T08:42:12.127Z,6.45
2022-08-10T08:44:41.988Z,5.10
2022-08-10T08:48:05.226Z,5.13
2022-08-10T08:50:40.630Z,4.72
2022-08-10T08:54:00.869Z,5.40
2022-08-10T08:56:40.311Z,4.53
2022-08-10T08:59:30.568Z,6.00
2022-08-10T09:02:14.411Z,6.65
2022-08-10T09:05:16.688Z,3.75
2022-08-10T09:08:03.160Z,5.47
2022-08-10T09:10:41.328Z,10.43
2022-08-10T09:13:27.306Z,5.85
2022-08-10T09:16:15.689Z,5.47
2022-08-10T09:18:48.654Z,4.55
2022-08-10T09:21:55.215Z,6.47
2022-08-10T09:24:46.228Z,5.43
2022-08-10T09:27:22.972Z,5.95
2022-08-10T09:29:57.633Z,5.72
2022-08-10T09:36:14.871Z,5.00
2022-08-10T09:36:29.859Z,6.03
2022-08-10T09:39:05.351Z,6.55
2022-08-10T09:41:49.700Z,5.35
2022-08-10T09:44:31.771Z,5.22
2022-08-10T09:47:06.428Z,4.97
2022-08-10T09:50:02.314Z,4.27
2022-08-10T09:53:08.736Z,4.50
2022-08-10T09:56:17.577Z,7.15
2022-08-10T09:58:49.228Z,5.32
2022-08-10T10:02:00.635Z,5.28
2022-08-10T10:04:49.008Z,3.80
2022-08-10T10:07:24.551Z,4.15
2022-08-10T10:10:02.428Z,4.95
2022-08-10T10:13:02.708Z,5.05
2022-08-10T10:15:47.129Z,4.68
2022-08-10T10:18:29.109Z,3.93
2022-08-10T10:20:55.909Z,5.43
2022-08-10T10:24:21.873Z,5.00
2022-08-10T10:27:01.336Z,5.25
2022-08-10T10:29:56.853Z,4.93
2022-08-10T10:32:37.358Z,4.17
2022-08-10T10:35:26.012Z,4.00
2022-08-10T10:38:01.779Z,4.38
2022-08-10T10:40:35.656Z,3.75
2022-08-10T10:43:33.329Z,4.55
2022-08-10T10:46:03.332Z,6.47
2022-08-10T10:48:39.929Z,4.15
2022-08-10T10:51:15.415Z,3.80
2022-08-10T10:54:13.507Z,4.43
2022-08-10T10:56:48.148Z,5.65
2022-08-10T10:59:55.509Z,3.70
2022-08-10T11:02:21.167Z,4.32
2022-08-10T11:05:15.508Z,5.93
2022-08-10T11:07:53.254Z,6.45
2022-08-10T11:10:33.010Z,5.88
2022-08-10T11:14:25.985Z,11.30
2022-08-10T11:16:17.169Z,5.30
2022-08-10T11:19:21.308Z,5.93
2022-08-10T11:22:25.429Z,5.57
2022-08-10T11:25:16.529Z,7.93
2022-08-10T11:28:14.087Z,5.10
2022-08-10T11:30:45.391Z,4.47
2022-08-10T11:33:42.716Z,5.65
2022-08-10T11:36:42.347Z,5.22
2022-08-10T11:39:16.353Z,7.85
2022-08-10T11:42:11.932Z,7.43
2022-08-10T11:44:57.668Z,8.07
2022-08-10T11:47:31.971Z,4.55
2022-08-10T11:50:31.549Z,4.85
2022-08-10T11:53:25.790Z,9.38
2022-08-10T11:55:56.788Z,6.10
2022-08-10T11:58:43.448Z,5.00
2022-08-10T12:01:11.888Z,7.43
2022-08-10T12:03:39.156Z,4.45
2022-08-10T12:06:08.608Z,9.27
2022-08-10T12:10:04.326Z,5.33
2022-08-10T12:11:26.707Z,5.00
2022-08-10T12:14:22.794Z,6.65
2022-08-10T12:17:05.408Z,7.30
2022-08-10T12:20:02.326Z,5.18
2022-08-10T12:22:33.558Z,6.57
2022-08-10T12:25:03.467Z,5.97
2022-08-10T12:27:34.616Z,4.10
2022-08-10T12:30:06.647Z,5.35
2022-08-10T12:32:49.994Z,6.03
2022-08-10T12:35:23.721Z,5.17
2022-08-10T12:38:23.949Z,5.63
2022-08-10T12:41:17.007Z,7.25
2022-08-10T12:44:41.161Z,4.35
2022-08-10T12:47:35.950Z,6.25
2022-08-10T12:50:30.545Z,4.60
2022-08-10T12:53:11.587Z,5.35
2022-08-10T12:55:39.027Z,3.83
2022-08-10T12:58:59.077Z,4.43
2022-08-10T13:01:14.750Z,5.13
2022-08-10T13:04:21.180Z,3.53
2022-08-10T13:06:27.068Z,4.43
2022-08-10T13:09:12.228Z,4.40
2022-08-10T13:12:36.686Z,5.07
2022-08-10T13:15:25.322Z,3.53
2022-08-10T13:17:59.631Z,4.80
2022-08-10T13:20:34.307Z,3.78
2022-08-10T13:23:02.296Z,3.80
2022-08-10T13:25:32.211Z,4.07
2022-08-10T13:28:36.637Z,3.92
2022-08-10T13:30:50.648Z,3.53
2022-08-10T13:34:39.913Z,4.35
2022-08-10T13:36:05.309Z,6.55
2022-08-10T13:38:32.268Z,4.20
2022-08-10T13:40:59.213Z,5.03
2022-08-10T13:43:26.167Z,3.53
2022-08-10T13:45:53.208Z,3.90
2022-08-10T13:48:22.067Z,5.35
2022-08-10T13:50:50.728Z,3.00
2022-08-10T13:53:18.129Z,4.25
2022-08-10T13:55:55.033Z,4.53
2022-08-10T13:58:33.908Z,3.97
2022-08-10T14:01:08.685Z,4.10
2022-08-10T14:03:37.534Z,3.85
2022-08-10T14:06:05.709Z,5.25
2022-08-10T14:08:32.689Z,6.37
2022-08-10T14:11:11.594Z,3.58
2022-08-10T14:13:58.549Z,5.72
2022-08-10T14:16:25.628Z,4.70
2022-08-10T14:18:59.754Z,5.07
2022-08-10T14:21:26.649Z,5.10
2022-08-10T14:23:53.960Z,7.20
2022-08-10T14:26:24.128Z,5.22
2022-08-10T14:28:54.511Z,4.63
2022-08-10T14:31:22.950Z,4.07
2022-08-10T14:33:55.032Z,4.90
2022-08-10T14:36:32.448Z,5.82
2022-08-10T14:38:59.550Z,4.05
2022-08-10T14:42:03.261Z,4.93
2022-08-10T14:44:15.988Z,4.97
2022-08-10T14:46:51.694Z,3.27
2022-08-10T14:49:25.262Z,4.35
2022-08-10T14:51:56.923Z,4.47
2022-08-10T14:54:29.706Z,4.03
2022-08-10T14:56:57.292Z,3.63
2022-08-10T14:59:45.893Z,3.20
2022-08-10T15:02:38.112Z,3.63
2022-08-10T15:05:03.308Z,4.00
2022-08-10T15:07:30.289Z,2.45
2022-08-10T15:10:02.196Z,3.53
2022-08-10T15:12:33.230Z,3.43
2022-08-10T15:15:01.302Z,5.13
2022-08-10T15:17:37.933Z,6.15
2022-08-10T15:20:20.562Z,5.07
2022-08-10T15:23:30.545Z,4.97
2022-08-10T15:25:59.698Z,6.40
2022-08-10T15:28:30.547Z,3.47
2022-08-10T15:31:20.149Z,3.85
2022-08-10T15:34:09.812Z,5.40
2022-08-10T15:37:36.475Z,6.50
2022-08-10T15:40:24.244Z,6.03
2022-08-10T15:42:54.082Z,6.45
2022-08-10T15:45:21.129Z,6.15
2022-08-10T15:47:52.167Z,5.50
2022-08-10T15:50:46.289Z,3.67
2022-08-10T15:53:49.133Z,3.37
2022-08-10T15:56:28.147Z,8.43
2022-08-10T15:59:07.983Z,6.85
2022-08-10T16:02:15.118Z,4.13
2022-08-10T16:04:32.803Z,4.50
2022-08-10T16:07:10.969Z,4.53
2022-08-10T16:10:22.991Z,4.65
2022-08-10T16:12:34.449Z,5.90
2022-08-10T16:15:10.429Z,5.90
2022-08-10T16:17:55.495Z,5.05
2022-08-10T16:21:00.791Z,5.03
2022-08-10T16:23:34.395Z,5.07
2022-08-10T16:26:14.998Z,4.88
2022-08-10T16:28:51.108Z,3.80
2022-08-10T16:31:22.555Z,4.97
2022-08-10T16:33:55.506Z,5.50
2022-08-10T16:36:22.773Z,5.10
2022-08-10T16:38:50.470Z,4.15
2022-08-10T16:42:00.695Z,5.00
2022-08-10T16:44:06.948Z,4.30
2022-08-10T16:46:33.949Z,3.87
2022-08-10T16:49:00.789Z,5.70
2022-08-10T16:51:27.719Z,4.40
2022-08-10T16:53:54.616Z,4.20
2022-08-10T16:56:30.127Z,4.32
2022-08-10T16:58:57.434Z,7.50
2022-08-10T17:01:25.988Z,4.40
2022-08-10T17:04:05.588Z,3.60
2022-08-10T17:06:57.287Z,4.72
2022-08-10T17:09:29.312Z,5.03
2022-08-10T17:11:58.219Z,3.43
2022-08-10T17:14:28.632Z,3.50
2022-08-10T17:17:00.354Z,4.35
2022-08-10T17:19:27.909Z,4.63
2022-08-10T17:21:59.234Z,4.03
2022-08-10T17:24:34.570Z,6.03
2022-08-10T17:28:21.159Z,4.45
2022-08-10T17:30:03.168Z,7.40
2022-08-10T17:32:56.427Z,6.35
2022-08-10T17:35:30.749Z,4.95
2022-08-10T17:38:02.271Z,10.07
2022-08-10T17:40:30.047Z,5.05
2022-08-10T17:42:56.950Z,5.20
2022-08-10T17:45:47.640Z,4.65
2022-08-10T17:48:13.309Z,4.80
2022-08-10T17:50:41.312Z,3.43
2022-08-10T17:53:16.790Z,4.30
2022-08-10T17:55:44.928Z,5.05
2022-08-10T17:58:16.129Z,4.93
2022-08-10T18:00:44.073Z,4.38
2022-08-10T18:03:32.050Z,5.33
2022-08-10T18:06:03.947Z,5.78
2022-08-10T18:08:40.770Z,4.85
2022-08-10T18:11:07.708Z,4.38
2022-08-10T18:13:55.322Z,4.88
2022-08-10T18:16:33.996Z,4.33
2022-08-10T18:19:08.279Z,5.25
2022-08-10T18:21:38.985Z,4.32
2022-08-10T18:24:16.161Z,4.53
2022-08-10T18:26:44.036Z,7.55
2022-08-10T18:29:13.118Z,5.83
2022-08-10T18:31:44.375Z,5.13
2022-08-10T18:34:12.955Z,5.72
2022-08-10T18:36:43.516Z,4.88
2022-08-10T18:39:11.129Z,6.90
2022-08-10T18:41:40.009Z,4.57
2022-08-10T18:44:31.988Z,6.72
2022-08-10T18:47:04.597Z,4.78
2022-08-10T18:49:54.744Z,4.35
2022-08-10T18:52:22.801Z,5.80
2022-08-10T18:54:50.982Z,6.87
2022-08-10T18:57:39.459Z,7.20
2022-08-10T19:00:13.446Z,6.97
2022-08-10T19:03:10.171Z,6.65
2022-08-10T19:05:57.999Z,7.03
2022-08-10T19:08:31.584Z,5.37
2022-08-10T19:11:24.703Z,6.32
2022-08-10T19:13:58.687Z,6.15
2022-08-10T19:16:55.087Z,5.90
2022-08-10T19:19:59.388Z,6.03
2022-08-10T19:22:27.798Z,7.53
2022-08-10T19:25:14.225Z,6.68
2022-08-10T19:28:18.326Z,7.65
2022-08-10T19:30:50.518Z,8.63
2022-08-10T19:33:52.618Z,7.85
2022-08-10T19:36:45.556Z,6.97
2022-08-10T19:39:50.602Z,8.05
2022-08-10T19:42:50.553Z,11.35
2022-08-10T19:46:00.915Z,9.55
2022-08-10T19:48:59.564Z,15.85
2022-08-10T19:51:37.365Z,16.10
2022-08-10T19:54:10.387Z,11.63
2022-08-10T19:56:58.696Z,10.32
2022-08-10T20:00:15.877Z,7.82
2022-08-10T20:02:25.025Z,9.70
2022-08-10T20:05:15.896Z,8.80
2022-08-10T20:07:48.465Z,8.57
2022-08-10T20:10:19.015Z,9.35
2022-08-10T20:13:04.346Z,8.20
2022-08-10T20:15:48.436Z,12.68
2022-08-10T20:18:24.545Z,8.30
2022-08-10T20:21:19.176Z,8.65
2022-08-10T20:24:05.918Z,9.57
2022-08-10T20:26:52.731Z,8.27
2022-08-10T20:29:57.876Z,7.80
2022-08-10T20:32:26.751Z,8.40
2022-08-10T20:35:08.811Z,9.23
2022-08-10T20:37:43.498Z,8.93
2022-08-10T20:40:47.472Z,8.82
2022-08-10T20:43:28.890Z,10.35
2022-08-10T20:46:33.195Z,10.23
2022-08-10T20:49:04.210Z,11.68
2022-08-10T20:51:57.909Z,10.93
2022-08-10T20:54:32.618Z,10.38
2022-08-10T20:57:54.976Z,9.82
2022-08-10T21:00:13.661Z,10.43
2022-08-10T21:02:47.816Z,8.43
2022-08-10T21:05:21.333Z,9.65
2022-08-10T21:08:10.331Z,11.57
2022-08-10T21:11:03.551Z,10.05
2022-08-10T21:13:54.530Z,10.20
2022-08-10T21:16:54.210Z,10.52
2022-08-10T21:19:53.674Z,9.70
2022-08-10T21:22:29.585Z,11.27
2022-08-10T21:25:31.192Z,12.32
2022-08-10T21:27:59.852Z,10.10
2022-08-10T21:30:36.191Z,13.13
2022-08-10T21:33:12.110Z,11.77
2022-08-10T21:35:51.052Z,11.48
2022-08-10T21:38:42.630Z,11.43
2022-08-10T21:41:58.306Z,11.47
2022-08-10T21:45:21.530Z,10.32
2022-08-10T21:48:59.219Z,11.10
2022-08-10T21:52:01.718Z,13.07
2022-08-10T21:55:08.723Z,12.60
2022-08-10T21:58:27.442Z,10.27
2022-08-10T22:01:16.831Z,11.45
2022-08-10T22:04:02.030Z,10.30
2022-08-10T22:06:52.492Z,11.07
2022-08-10T22:09:42.782Z,11.18
2022-08-10T22:12:31.981Z,9.37
2022-08-10T22:15:23.601Z,12.38
2022-08-10T22:18:31.287Z,11.63
2022-08-10T22:21:52.265Z,9.93
2022-08-10T22:28:18.171Z,11.27
2022-08-10T22:31:26.141Z,13.27
2022-08-10T22:31:32.214Z,11.20
2022-08-10T22:34:48.883Z,11.55
2022-08-10T22:37:52.463Z,13.68
2022-08-10T22:40:46.566Z,10.38
2022-08-10T22:43:39.983Z,11.70
2022-08-10T22:46:41.063Z,10.00
2022-08-10T22:49:07.862Z,11.60
2022-08-10T22:51:58.482Z,9.98
2022-08-10T22:54:52.262Z,11.95
2022-08-10T22:57:38.023Z,12.20
2022-08-10T23:00:30.863Z,11.32
2022-08-10T23:03:22.163Z,13.98
2022-08-10T23:06:00.606Z,12.48
2022-08-10T23:08:41.184Z,12.30
2022-08-10T23:11:08.743Z,11.27
2022-08-10T23:13:40.943Z,14.15
2022-08-10T23:16:36.203Z,12.23
2022-08-10T23:19:12.964Z,13.15
2022-08-10T23:22:17.244Z,15.27
2022-08-10T23:24:47.602Z,14.00
2022-08-10T23:27:38.488Z,13.07
2022-08-10T23:30:09.915Z,14.80
2022-08-10T23:32:44.783Z,15.30
2022-08-10T23:36:31.214Z,13.82
2022-08-10T23:38:07.002Z,14.83
2022-08-10T23:40:34.344Z,12.45
2022-08-10T23:43:01.282Z,15.82
2022-08-10T23:45:29.222Z,10.52
2022-08-10T23:48:21.287Z,13.93
2022-08-10T23:50:59.614Z,11.80
2022-08-10T23:53:32.122Z,12.98
2022-08-10T23:56:18.602Z,12.13
2022-08-10T23:58:58.282Z,11.70
